Aérodrome :







RETROUVEZ-NOUS SUR...

 
LOGIN :

S'inscrire | Disclaimer

   EN    FR    IT 

 









Légende :    VFR   VFR Marginal   IFR   IFR Intensif   IFR Très Intensif
Visi : 
Plafond : 
>= 8 km
>= 3000ft
5 à 8 km
1000 à 3000 ft
1500m à 5 km
500 à 1000 ft
800 à 1500m
200 à 500 ft
< 800m
< 200 ft
Symboles :   Orages  Brouillard  Fortes neiges  Fortes précipitations  Vent > 20 kt






- Altitude de l'aérodrome : 266 ft
- Code IATA : MHT


KMHT - Manchester

DERNIER METAR :
  • 041553Z 19009KT 10SM FEW085 BKN250 09/M04 A2996 RMK AO2 SLP162 T00941039

METARs EXPIRÉS :
  • 041453Z 19007KT 10SM OVC085 06/M03 A2999 RMK AO2 SLP173 T00561028 50000
  • 041353Z 25003KT 10SM OVC090 03/M04 A3001 RMK AO2 SLP178 T00331039

TAF KMHT
Valide du 04 à 12h jusqu'au 05 à 12h UTC


041128Z 0412/0512 20003KT P6SM FEW110 SCT250
FM041600 21006KT P6SM OVC060
FM050400 19004KT 5SM BR OVC025
FM050600 19003KT 4SM BR OVC015
FM050800 23002KT 2SM -RA BR OVC015
FIR KZBW / Amérique du Nord



MET'MAP, la Météo Aéronautique d'un coup d'oeil ! - Copyright ORBIFLY Décembre 2007 - Disclaimer

ORBIFLY MET'MAP TEAM :

Programmation & Développement : Alexandra Zaïnal
Sur une idée originale de : Baudouin d'Aumeries
Assistance à la programmation : Marc-Olivier Méhu
Soutien technique & logistique : Manuel Goepfert

Contact : metmap@orbifly.com




SOURCES & CREDITS :

   NOAA